createdAt,value
2023-01-09T00:01:51.419Z,100.00
2023-01-09T00:06:56.274Z,100.00
2023-01-09T00:11:57.977Z,100.00
2023-01-09T00:16:59.740Z,100.00
2023-01-09T00:22:01.959Z,100.00
2023-01-09T00:27:04.159Z,100.00
2023-01-09T00:32:10.062Z,100.00
2023-01-09T00:37:12.624Z,100.00
2023-01-09T00:42:23.550Z,100.00
2023-01-09T00:47:31.215Z,100.00
2023-01-09T00:52:35.921Z,100.00
2023-01-09T00:57:37.760Z,100.00
2023-01-09T01:02:39.736Z,100.00
2023-01-09T01:07:43.120Z,100.00
2023-01-09T01:12:44.881Z,100.00
2023-01-09T01:17:46.645Z,100.00
2023-01-09T01:22:48.337Z,100.00
2023-01-09T01:27:50.219Z,100.00
2023-01-09T01:32:51.852Z,99.12
2023-01-09T01:37:53.542Z,98.19
2023-01-09T01:42:55.494Z,98.42
2023-01-09T01:48:00.250Z,98.19
2023-01-09T01:53:21.909Z,98.58
2023-01-09T01:58:23.615Z,99.63
2023-01-09T02:03:28.512Z,98.36
2023-01-09T02:08:30.613Z,99.29
2023-01-09T02:13:35.178Z,98.25
2023-01-09T02:18:52.088Z,98.94
2023-01-09T02:24:18.144Z,98.94
2023-01-09T02:29:41.320Z,97.75
2023-01-09T02:35:06.030Z,98.06
2023-01-09T02:40:25.322Z,98.50
2023-01-09T02:45:27.477Z,100.00
2023-01-09T02:50:44.349Z,99.49
2023-01-09T02:56:04.505Z,100.00
2023-01-09T03:01:35.919Z,100.00
2023-01-09T03:07:02.567Z,100.00
2023-01-09T03:12:11.936Z,100.00
2023-01-09T03:17:19.231Z,100.00
2023-01-09T03:22:21.045Z,100.00
2023-01-09T03:27:22.739Z,100.00
2023-01-09T03:32:24.505Z,100.00
2023-01-09T03:37:26.124Z,100.00
2023-01-09T03:42:27.834Z,100.00
2023-01-09T03:47:29.488Z,100.00
2023-01-09T03:52:31.190Z,100.00
2023-01-09T03:57:32.919Z,100.00
2023-01-09T04:02:34.638Z,100.00
2023-01-09T04:07:36.514Z,100.00
2023-01-09T04:12:38.311Z,100.00
2023-01-09T04:17:39.950Z,100.00
2023-01-09T04:22:41.751Z,100.00
2023-01-09T04:27:43.430Z,100.00
2023-01-09T04:32:45.170Z,100.00
2023-01-09T04:37:47.239Z,100.00
2023-01-09T04:42:48.894Z,100.00
2023-01-09T04:47:50.660Z,100.00
2023-01-09T04:52:52.313Z,100.00
2023-01-09T04:57:53.913Z,100.00
2023-01-09T05:02:56.924Z,100.00
2023-01-09T05:07:58.627Z,100.00
2023-01-09T05:13:00.334Z,100.00
2023-01-09T05:18:01.964Z,100.00
2023-01-09T05:23:03.707Z,100.00
2023-01-09T05:28:05.351Z,100.00
2023-01-09T05:33:07.042Z,100.00
2023-01-09T05:38:08.736Z,100.00
2023-01-09T05:43:10.555Z,100.00
2023-01-09T05:48:12.304Z,100.00
2023-01-09T05:53:14.048Z,100.00
2023-01-09T05:58:15.803Z,100.00
2023-01-09T06:03:17.504Z,100.00
2023-01-09T06:08:19.426Z,100.00
2023-01-09T06:13:21.230Z,100.00
2023-01-09T06:18:23.015Z,100.00
2023-01-09T06:23:24.703Z,100.00
2023-01-09T06:28:26.365Z,100.00
2023-01-09T06:33:28.069Z,100.00
2023-01-09T06:38:29.800Z,100.00
2023-01-09T06:43:31.528Z,100.00
2023-01-09T06:48:33.990Z,100.00
2023-01-09T06:53:35.786Z,100.00
2023-01-09T06:58:37.462Z,100.00
2023-01-09T07:03:39.116Z,100.00
2023-01-09T07:08:40.810Z,100.00
2023-01-09T07:13:42.653Z,100.00
2023-01-09T07:18:44.380Z,100.00
2023-01-09T07:23:46.941Z,99.36
2023-01-09T07:28:48.793Z,99.74
2023-01-09T07:33:50.460Z,100.00
2023-01-09T07:38:55.054Z,100.00
2023-01-09T07:43:57.527Z,100.00
2023-01-09T07:48:59.151Z,100.00
2023-01-09T07:54:01.018Z,100.00
2023-01-09T07:59:02.741Z,100.00
2023-01-09T08:04:04.525Z,100.00
2023-01-09T08:09:06.220Z,100.00
2023-01-09T08:14:08.178Z,100.00
2023-01-09T08:19:12.227Z,100.00
2023-01-09T08:24:13.948Z,100.00
2023-01-09T08:29:15.608Z,100.00
2023-01-09T08:34:17.219Z,100.00
2023-01-09T08:39:19.040Z,100.00
2023-01-09T08:44:39.153Z,100.00
2023-01-09T08:49:40.933Z,100.00
2023-01-09T08:54:42.588Z,100.00
2023-01-09T08:59:44.257Z,97.33
2023-01-09T09:04:47.381Z,93.19
2023-01-09T09:09:49.144Z,93.06
2023-01-09T09:15:09.340Z,93.39
2023-01-09T09:20:11.959Z,91.22
2023-01-09T09:25:15.112Z,92.05
2023-01-09T09:30:18.975Z,93.36
2023-01-09T09:35:23.589Z,95.60
2023-01-09T09:40:33.366Z,97.43
2023-01-09T09:45:56.598Z,99.36
2023-01-09T09:51:22.949Z,100.00
2023-01-09T09:56:24.822Z,99.89
2023-01-09T10:01:39.832Z,100.00
2023-01-09T10:06:45.089Z,99.77
2023-01-09T10:11:59.952Z,97.90
2023-01-09T10:17:45.409Z,97.44
2023-01-09T10:23:22.827Z,99.89
2023-01-09T10:28:33.919Z,100.00
2023-01-09T10:33:41.716Z,100.00
2023-01-09T10:38:47.733Z,100.00
2023-01-09T10:43:53.132Z,100.00
2023-01-09T10:48:59.560Z,100.00
2023-01-09T10:54:01.651Z,100.00
2023-01-09T10:59:03.463Z,100.00
2023-01-09T11:04:16.347Z,100.00
2023-01-09T11:09:19.065Z,100.00
2023-01-09T11:14:27.860Z,99.71
2023-01-09T11:19:31.286Z,98.75
2023-01-09T11:24:33.073Z,90.86
2023-01-09T11:29:34.732Z,93.90
2023-01-09T11:34:37.221Z,90.88
2023-01-09T11:39:45.440Z,87.84
2023-01-09T11:44:47.136Z,88.19
2023-01-09T11:49:51.433Z,90.00
2023-01-09T11:55:00.973Z,85.01
2023-01-09T12:00:33.635Z,81.68
2023-01-09T12:05:51.833Z,79.82
2023-01-09T12:11:21.595Z,81.38
2023-01-09T12:16:37.053Z,78.50
2023-01-09T12:22:16.311Z,78.64
2023-01-09T12:27:42.450Z,80.60
2023-01-09T12:33:09.301Z,79.34
2023-01-09T12:38:23.158Z,79.92
2023-01-09T12:43:30.655Z,78.97
2023-01-09T12:48:57.324Z,81.13
2023-01-09T12:54:22.172Z,83.26
2023-01-09T12:59:40.160Z,79.92
2023-01-09T13:04:50.975Z,79.63
2023-01-09T13:10:04.857Z,81.34
2023-01-09T13:15:24.551Z,81.69
2023-01-09T13:20:36.535Z,78.64
2023-01-09T13:25:41.162Z,78.60
2023-01-09T13:31:19.502Z,79.52
2023-01-09T13:36:28.134Z,79.86
2023-01-09T13:41:50.051Z,78.81
2023-01-09T13:46:56.227Z,78.98
2023-01-09T13:51:59.406Z,80.68
2023-01-09T13:57:32.634Z,81.94
2023-01-09T14:02:34.357Z,80.81
2023-01-09T14:07:38.872Z,83.49
2023-01-09T14:12:43.236Z,83.51
2023-01-09T14:17:44.983Z,83.09
2023-01-09T14:22:56.199Z,83.18
2023-01-09T14:28:18.922Z,81.62
2023-01-09T14:33:21.437Z,82.98
2023-01-09T14:38:34.407Z,82.80
2023-01-09T14:43:58.459Z,84.45
2023-01-09T14:49:04.261Z,79.78
2023-01-09T14:54:34.715Z,79.61
2023-01-09T14:59:36.448Z,79.68
2023-01-09T15:04:40.975Z,82.31
2023-01-09T15:09:48.073Z,82.27
2023-01-09T15:14:54.353Z,81.85
2023-01-09T15:19:58.202Z,81.46
2023-01-09T15:25:38.516Z,81.41
2023-01-09T15:30:42.032Z,82.52
2023-01-09T15:35:46.590Z,84.97
2023-01-09T15:41:50.978Z,86.83
2023-01-09T15:46:58.512Z,88.89
2023-01-09T15:52:02.361Z,89.18
2023-01-09T15:57:26.107Z,87.10
2023-01-09T16:02:47.725Z,86.58
2023-01-09T16:07:51.275Z,86.57
2023-01-09T16:12:54.748Z,86.34
2023-01-09T16:18:39.099Z,87.45
2023-01-09T16:23:51.506Z,89.50
2023-01-09T16:28:53.344Z,91.27
2023-01-09T16:33:59.257Z,92.81
2023-01-09T16:39:02.995Z,93.58
2023-01-09T16:44:09.452Z,94.05
2023-01-09T16:49:29.157Z,94.55
2023-01-09T16:54:30.921Z,96.14
2023-01-09T16:59:32.554Z,96.90
2023-01-09T17:04:34.273Z,97.68
2023-01-09T17:09:37.565Z,97.72
2023-01-09T17:14:39.558Z,97.20
2023-01-09T17:19:42.250Z,99.01
2023-01-09T17:25:02.253Z,99.44
2023-01-09T17:30:17.819Z,99.48
2023-01-09T17:35:20.384Z,98.78
2023-01-09T17:40:23.534Z,97.66
2023-01-09T17:45:25.684Z,99.03
2023-01-09T17:50:33.712Z,98.96
2023-01-09T17:55:36.249Z,99.59
2023-01-09T18:00:37.967Z,100.00
2023-01-09T18:05:39.903Z,100.00
2023-01-09T18:10:43.076Z,100.00
2023-01-09T18:15:46.283Z,100.00
2023-01-09T18:20:48.442Z,100.00
2023-01-09T18:25:50.284Z,100.00
2023-01-09T18:30:52.293Z,100.00
2023-01-09T18:35:54.098Z,100.00
2023-01-09T18:41:03.293Z,100.00
2023-01-09T18:46:07.360Z,100.00
2023-01-09T18:51:09.431Z,100.00
2023-01-09T18:56:14.802Z,96.22
2023-01-09T19:01:17.023Z,92.03
2023-01-09T19:06:18.902Z,90.01
2023-01-09T19:11:21.112Z,87.31
2023-01-09T19:16:22.916Z,87.87
2023-01-09T19:21:26.798Z,87.08
2023-01-09T19:26:28.576Z,88.48
2023-01-09T19:31:30.499Z,85.89
2023-01-09T19:36:32.175Z,86.66
2023-01-09T19:41:33.853Z,87.21
2023-01-09T19:46:36.217Z,87.04
2023-01-09T19:51:37.930Z,87.55
2023-01-09T19:56:40.861Z,87.03
2023-01-09T20:01:42.692Z,85.99
2023-01-09T20:06:49.644Z,84.48
2023-01-09T20:11:51.440Z,83.37
2023-01-09T20:16:55.304Z,84.94
2023-01-09T20:21:57.033Z,83.47
2023-01-09T20:26:58.773Z,83.38
2023-01-09T20:32:01.393Z,84.73
2023-01-09T20:37:03.054Z,85.09
2023-01-09T20:42:04.991Z,83.20
2023-01-09T20:47:06.743Z,83.29
2023-01-09T20:52:08.591Z,81.84
2023-01-09T20:57:10.276Z,81.41
2023-01-09T21:02:15.000Z,83.46
2023-01-09T21:07:17.347Z,85.24
2023-01-09T21:12:28.605Z,82.60
2023-01-09T21:17:34.805Z,82.42
2023-01-09T21:22:37.367Z,82.21
2023-01-09T21:27:42.978Z,81.73
2023-01-09T21:32:44.717Z,81.96
2023-01-09T21:37:46.394Z,82.72
2023-01-09T21:43:07.166Z,82.79
2023-01-09T21:48:08.922Z,83.45
2023-01-09T21:53:10.786Z,83.23
2023-01-09T21:58:12.510Z,83.56
2023-01-09T22:03:16.979Z,84.25
2023-01-09T22:08:18.675Z,84.49
2023-01-09T22:13:20.516Z,85.05
2023-01-09T22:18:22.559Z,84.57
2023-01-09T22:23:24.311Z,85.01
2023-01-09T22:28:26.355Z,85.58
2023-01-09T22:33:28.026Z,86.72
2023-01-09T22:38:29.652Z,88.38
2023-01-09T22:43:31.913Z,87.28
2023-01-09T22:48:34.651Z,87.63
2023-01-09T22:53:36.362Z,87.83
2023-01-09T22:58:38.655Z,88.39
2023-01-09T23:03:40.430Z,87.72
2023-01-09T23:08:42.893Z,88.33
2023-01-09T23:13:44.533Z,88.05
2023-01-09T23:18:46.208Z,88.83
2023-01-09T23:23:47.877Z,89.25
2023-01-09T23:28:49.558Z,88.33
2023-01-09T23:33:51.440Z,89.00
2023-01-09T23:38:53.350Z,87.60
2023-01-09T23:43:55.189Z,87.78
2023-01-09T23:48:56.849Z,87.64
2023-01-09T23:53:59.103Z,87.68
2023-01-09T23:59:01.740Z,87.66
